Time;durP1;ratioP1;P1;durP2;ratioP2;P2;SDS_P1;SDS_P2;PMS_P1;PMS_P2;Temp;Humidity;BMP_temperature;BMP_pressure;BME280_temperature;BME280_humidity;BME280_pressure;Samples;Min_cycle;Max_cycle;Signal;HPM_P1;HPM_P2
2020/12/24 00:00:06;;;;;;;6.43;1.50;;;10.50;99.90;;;;;;5097507;28;20054;-70
2020/12/24 00:02:32;;;;;;;5.75;1.65;;;10.40;99.90;;;;;;5096746;28;20036;-69
2020/12/24 00:04:57;;;;;;;9.27;1.58;;;10.40;99.90;;;;;;5096818;28;20020;-70
2020/12/24 00:07:23;;;;;;;4.88;1.30;;;10.30;99.90;;;;;;5095864;28;20036;-70
2020/12/24 00:09:48;;;;;;;8.15;2.38;;;10.30;99.90;;;;;;5096990;28;20056;-70
2020/12/24 00:12:14;;;;;;;5.22;1.60;;;10.30;99.90;;;;;;5096934;28;20043;-69
2020/12/24 00:14:40;;;;;;;6.85;1.75;;;10.20;99.90;;;;;;5097176;28;20051;-69
2020/12/24 00:17:06;;;;;;;6.90;1.98;;;10.10;99.90;;;;;;5096535;28;20103;-70
2020/12/24 00:19:32;;;;;;;10.77;2.13;;;10.10;99.90;;;;;;5097096;28;20104;-70
2020/12/24 00:21:58;;;;;;;6.05;1.80;;;10.20;99.90;;;;;;5096990;28;20142;-70
2020/12/24 00:24:23;;;;;;;11.27;2.25;;;10.20;99.90;;;;;;5096693;28;20103;-70
2020/12/24 00:26:49;;;;;;;11.65;2.42;;;10.20;99.90;;;;;;5096383;28;20027;-69
2020/12/24 00:29:14;;;;;;;7.72;2.53;;;10.20;99.90;;;;;;5096665;28;20043;-69
2020/12/24 00:31:40;;;;;;;10.20;1.92;;;10.30;99.90;;;;;;5096847;28;20028;-69
2020/12/24 00:34:06;;;;;;;8.68;2.42;;;10.30;99.90;;;;;;5096783;28;20059;-70
2020/12/24 00:36:32;;;;;;;8.88;2.05;;;10.20;99.90;;;;;;5096749;28;20031;-70
2020/12/24 00:38:58;;;;;;;9.55;2.30;;;10.10;99.90;;;;;;5096456;28;20468;-69
2020/12/24 00:41:24;;;;;;;7.07;1.95;;;10.20;99.90;;;;;;5096312;28;20035;-70
2020/12/24 00:43:50;;;;;;;5.80;1.77;;;10.10;99.90;;;;;;5095212;28;20044;-70
2020/12/24 00:46:17;;;;;;;9.10;1.92;;;10.00;99.90;;;;;;5096295;28;20055;-70
2020/12/24 00:48:42;;;;;;;8.98;2.20;;;9.90;99.90;;;;;;5096598;28;20020;-70
2020/12/24 00:51:08;;;;;;;10.95;2.25;;;9.90;99.90;;;;;;5096509;28;20059;-70
2020/12/24 00:53:34;;;;;;;12.38;2.15;;;9.80;99.90;;;;;;5096437;28;20026;-70
2020/12/24 00:55:59;;;;;;;11.10;2.08;;;9.70;99.90;;;;;;5096054;28;20465;-70
2020/12/24 00:58:25;;;;;;;11.95;2.20;;;9.70;99.90;;;;;;5095837;28;20031;-70
2020/12/24 01:00:50;;;;;;;11.40;2.00;;;9.60;99.90;;;;;;5096109;28;20024;-70
2020/12/24 01:03:16;;;;;;;13.20;2.58;;;9.60;99.90;;;;;;5095977;28;20082;-70
2020/12/24 01:05:41;;;;;;;12.50;1.88;;;9.60;99.90;;;;;;5095119;28;20020;-70
2020/12/24 01:08:07;;;;;;;6.38;1.98;;;9.60;99.90;;;;;;5096202;28;20027;-68
2020/12/24 01:10:33;;;;;;;11.00;1.80;;;9.50;99.90;;;;;;5095848;28;20483;-69
2020/12/24 01:12:58;;;;;;;12.05;2.40;;;9.60;99.90;;;;;;5095541;28;20020;-69
2020/12/24 01:15:24;;;;;;;5.97;1.98;;;9.60;99.90;;;;;;5096053;28;20032;-69
2020/12/24 01:17:50;;;;;;;8.88;1.88;;;9.60;99.90;;;;;;5096004;28;20020;-69
2020/12/24 01:20:15;;;;;;;11.60;2.03;;;9.50;99.90;;;;;;5095909;28;20077;-69
2020/12/24 01:22:41;;;;;;;9.73;2.28;;;9.50;99.90;;;;;;5095846;28;20441;-69
2020/12/24 01:25:07;;;;;;;5.20;1.65;;;9.50;99.90;;;;;;5094795;28;20044;-70
2020/12/24 01:27:32;;;;;;;10.63;1.77;;;9.50;99.90;;;;;;5095785;28;20035;-69
2020/12/24 01:29:58;;;;;;;12.23;2.42;;;9.50;99.90;;;;;;5095729;28;20103;-69
2020/12/24 01:32:24;;;;;;;11.70;2.25;;;9.50;99.90;;;;;;5095398;28;20024;-69
2020/12/24 01:34:49;;;;;;;9.40;1.88;;;9.40;99.90;;;;;;5095633;28;20020;-70
2020/12/24 01:37:15;;;;;;;6.97;2.05;;;9.40;99.90;;;;;;5095559;28;20507;-69
2020/12/24 01:39:42;;;;;;;8.43;2.25;;;9.30;99.90;;;;;;5095552;28;20046;-69
2020/12/24 01:42:07;;;;;;;9.20;2.08;;;9.30;99.90;;;;;;5095418;28;20024;-69
2020/12/24 01:44:33;;;;;;;14.85;2.65;;;9.40;99.90;;;;;;5095144;28;20039;-69
2020/12/24 01:46:59;;;;;;;9.02;1.73;;;9.40;99.90;;;;;;5095384;28;20031;-70
2020/12/24 01:49:24;;;;;;;10.57;1.80;;;9.40;99.90;;;;;;5095105;28;20476;-70
2020/12/24 01:51:54;;;;;;;12.00;2.03;;;9.40;99.90;;;;;;5095341;28;20024;-70
2020/12/24 01:54:22;;;;;;;10.82;1.85;;;9.40;99.90;;;;;;5095266;28;20024;-70
2020/12/24 01:56:48;;;;;;;16.70;2.55;;;9.30;99.90;;;;;;5095200;28;20036;-70
2020/12/24 01:59:15;;;;;;;10.73;2.03;;;9.20;99.90;;;;;;5093731;28;20027;-69
2020/12/24 02:01:45;;;;;;;9.52;2.30;;;9.20;99.90;;;;;;5094606;28;20098;-69
2020/12/24 02:04:12;;;;;;;13.18;2.35;;;9.10;99.90;;;;;;5094543;28;20056;-69
2020/12/24 02:06:41;;;;;;;9.85;2.05;;;9.10;99.90;;;;;;5094354;28;20042;-70
2020/12/24 02:09:07;;;;;;;11.82;2.58;;;9.00;99.90;;;;;;5094685;28;20465;-69
2020/12/24 02:11:33;;;;;;;13.18;2.40;;;9.00;99.90;;;;;;5094636;28;20035;-69
2020/12/24 02:13:59;;;;;;;9.27;1.80;;;9.00;99.90;;;;;;5094930;28;20457;-69
2020/12/24 02:16:24;;;;;;;9.65;1.85;;;8.80;99.90;;;;;;5094619;28;20095;-70
2020/12/24 02:18:50;;;;;;;13.02;2.30;;;8.80;99.90;;;;;;5094825;28;20039;-70
2020/12/24 02:21:16;;;;;;;13.52;2.63;;;8.80;99.90;;;;;;5092886;28;20138;-70
2020/12/24 02:23:42;;;;;;;11.43;2.28;;;8.90;99.90;;;;;;5094462;28;20020;-70
2020/12/24 02:26:07;;;;;;;12.40;2.50;;;9.00;99.90;;;;;;5094410;28;20047;-70
2020/12/24 02:28:33;;;;;;;13.18;2.50;;;9.00;99.90;;;;;;5094679;28;20105;-70
2020/12/24 02:31:00;;;;;;;13.13;2.67;;;9.10;99.90;;;;;;5094629;28;20077;-70
2020/12/24 02:33:26;;;;;;;14.63;2.30;;;9.10;99.90;;;;;;5094343;28;20024;-70
2020/12/24 02:35:51;;;;;;;19.60;3.10;;;9.10;99.90;;;;;;5094575;28;20386;-70
2020/12/24 02:38:17;;;;;;;12.40;3.13;;;9.10;99.90;;;;;;5094506;28;20078;-70
2020/12/24 02:40:42;;;;;;;13.15;2.42;;;9.10;99.90;;;;;;5094518;28;20032;-70
2020/12/24 02:43:08;;;;;;;8.85;1.90;;;9.20;99.90;;;;;;5092913;28;20046;-70
2020/12/24 02:45:42;;;;;;;15.52;2.67;;;9.20;99.90;;;;;;5092936;28;20522;-70
2020/12/24 02:48:07;;;;;;;17.42;2.28;;;9.20;99.90;;;;;;5092668;28;20066;-69
2020/12/24 02:50:33;;;;;;;10.70;1.75;;;9.20;99.90;;;;;;5094341;28;20059;-70
2020/12/24 02:52:59;;;;;;;8.38;2.45;;;9.20;99.90;;;;;;5093796;28;20061;-69
2020/12/24 02:55:24;;;;;;;12.13;2.30;;;9.20;99.90;;;;;;5092743;28;20552;-69
2020/12/24 02:57:50;;;;;;;13.63;3.20;;;9.20;99.90;;;;;;5094225;28;20035;-70
2020/12/24 03:00:15;;;;;;;12.85;2.83;;;9.20;99.90;;;;;;5093665;28;20086;-69
2020/12/24 03:02:41;;;;;;;14.40;2.92;;;9.20;99.90;;;;;;5093479;28;20130;-69
2020/12/24 03:05:06;;;;;;;15.63;2.20;;;9.20;99.90;;;;;;5093623;28;20027;-70
2020/12/24 03:07:32;;;;;;;15.13;2.58;;;9.20;99.90;;;;;;5094156;28;20024;-70
2020/12/24 03:09:58;;;;;;;14.80;2.95;;;9.20;99.90;;;;;;5094106;28;20031;-69
2020/12/24 03:12:24;;;;;;;18.17;2.53;;;9.20;99.90;;;;;;5094104;28;20042;-69
2020/12/24 03:14:51;;;;;;;11.93;2.63;;;9.30;99.90;;;;;;5094066;28;20023;-70
2020/12/24 03:17:17;;;;;;;13.23;2.78;;;9.20;99.90;;;;;;5093775;28;20020;-69
2020/12/24 03:19:43;;;;;;;11.57;2.30;;;9.20;99.90;;;;;;5097919;28;20526;-69
2020/12/24 03:22:08;;;;;;;14.32;2.80;;;9.30;99.90;;;;;;5098157;28;20028;-70
2020/12/24 03:24:34;;;;;;;11.15;2.60;;;9.30;99.90;;;;;;5096340;28;20570;-70
2020/12/24 03:27:00;;;;;;;13.68;2.25;;;9.30;99.90;;;;;;5098090;28;20096;-69
2020/12/24 03:29:25;;;;;;;12.90;1.92;;;9.20;99.90;;;;;;5098086;28;20024;-70
2020/12/24 03:31:51;;;;;;;9.32;2.08;;;9.20;99.90;;;;;;5096582;28;20050;-69
2020/12/24 03:34:16;;;;;;;12.63;2.17;;;9.20;99.90;;;;;;5097442;28;20032;-70
2020/12/24 03:36:42;;;;;;;11.88;2.45;;;9.20;99.90;;;;;;5097679;28;20050;-70
2020/12/24 03:39:07;;;;;;;13.00;2.35;;;9.20;99.90;;;;;;5097934;28;20538;-69
2020/12/24 03:41:33;;;;;;;13.27;2.90;;;9.20;99.90;;;;;;5097783;28;20384;-70
2020/12/24 03:43:59;;;;;;;13.93;2.55;;;9.10;99.90;;;;;;5097784;28;20475;-69
2020/12/24 03:46:24;;;;;;;15.20;2.80;;;9.10;99.90;;;;;;5097496;28;20099;-70
2020/12/24 03:48:50;;;;;;;7.57;2.30;;;9.10;99.90;;;;;;5097686;28;20024;-70
2020/12/24 03:51:15;;;;;;;15.18;2.92;;;9.00;99.90;;;;;;5096196;28;20028;-69
2020/12/24 03:53:41;;;;;;;12.10;2.15;;;9.00;99.90;;;;;;5097596;28;20031;-69
2020/12/24 03:56:06;;;;;;;12.90;2.35;;;9.10;99.90;;;;;;5097548;28;20522;-70
2020/12/24 03:58:32;;;;;;;13.85;2.97;;;9.10;99.90;;;;;;5097003;28;20051;-70
2020/12/24 04:00:57;;;;;;;14.40;2.90;;;9.10;99.90;;;;;;5097005;28;20409;-70
2020/12/24 04:03:23;;;;;;;16.15;2.78;;;9.10;99.90;;;;;;5097368;28;20405;-70
2020/12/24 04:05:48;;;;;;;13.57;2.45;;;9.00;99.90;;;;;;5097408;28;20043;-70
2020/12/24 04:08:14;;;;;;;12.50;2.08;;;9.00;99.90;;;;;;5097087;28;20412;-69
2020/12/24 04:10:40;;;;;;;10.48;2.25;;;9.00;99.90;;;;;;5097028;28;20019;-70
2020/12/24 04:13:05;;;;;;;10.75;2.22;;;9.00;99.90;;;;;;5097260;28;20453;-70
2020/12/24 04:15:31;;;;;;;14.52;2.40;;;8.90;99.90;;;;;;5097213;28;20477;-69
2020/12/24 04:17:56;;;;;;;8.45;1.85;;;8.90;99.90;;;;;;5097162;28;20028;-69
2020/12/24 04:20:22;;;;;;;7.80;1.83;;;9.00;99.90;;;;;;5096953;28;20046;-69
2020/12/24 04:22:47;;;;;;;11.57;2.78;;;9.00;99.90;;;;;;5096821;28;20111;-70
2020/12/24 04:25:13;;;;;;;7.38;1.55;;;9.00;99.90;;;;;;5096779;28;20384;-69
2020/12/24 04:27:39;;;;;;;9.82;1.85;;;9.00;99.90;;;;;;5097054;28;20030;-69
2020/12/24 04:30:05;;;;;;;8.35;1.90;;;9.00;99.90;;;;;;5096366;28;20095;-70
2020/12/24 04:32:35;;;;;;;10.90;2.10;;;8.90;99.90;;;;;;5096991;28;20077;-69
2020/12/24 04:35:00;;;;;;;13.88;2.70;;;8.90;99.90;;;;;;5096820;28;20024;-69
2020/12/24 04:37:26;;;;;;;17.20;2.58;;;8.80;99.90;;;;;;5096797;28;20099;-69
2020/12/24 04:39:52;;;;;;;10.15;2.53;;;8.80;99.90;;;;;;5096745;28;20035;-69
2020/12/24 04:42:20;;;;;;;10.10;2.38;;;8.80;99.90;;;;;;5096368;28;20445;-69
2020/12/24 04:44:49;;;;;;;10.32;2.88;;;8.70;99.90;;;;;;5096650;28;20020;-69
2020/12/24 04:47:17;;;;;;;15.00;2.33;;;8.70;99.90;;;;;;5096580;28;20103;-69
2020/12/24 04:49:43;;;;;;;12.32;2.17;;;8.60;99.90;;;;;;5096555;28;20483;-69
2020/12/24 04:52:09;;;;;;;10.48;2.38;;;8.50;99.90;;;;;;5096542;28;20024;-69
2020/12/24 04:54:34;;;;;;;12.85;2.55;;;8.50;99.90;;;;;;5095008;28;20083;-69
2020/12/24 04:57:07;;;;;;;8.57;2.03;;;8.50;99.90;;;;;;5096411;28;20039;-69
2020/12/24 04:59:33;;;;;;;10.82;2.13;;;8.50;99.90;;;;;;5096412;28;20196;-69
2020/12/24 05:02:01;;;;;;;6.30;1.58;;;8.40;99.90;;;;;;5095766;28;20040;-69
2020/12/24 05:04:27;;;;;;;13.07;1.83;;;8.40;99.90;;;;;;5096292;28;20023;-70
2020/12/24 05:07:00;;;;;;;13.63;2.03;;;8.40;99.90;;;;;;5095678;28;20048;-69
2020/12/24 05:09:26;;;;;;;12.00;2.13;;;8.30;99.90;;;;;;5094740;28;20039;-69
2020/12/24 05:11:52;;;;;;;13.98;2.25;;;8.30;99.90;;;;;;5096138;28;20032;-69
2020/12/24 05:14:19;;;;;;;14.57;2.38;;;8.30;99.90;;;;;;5094806;28;20028;-69
2020/12/24 05:17:06;;;;;;;11.60;2.75;;;8.40;99.90;;;;;;5095466;28;20468;-69
2020/12/24 05:19:35;;;;;;;12.93;2.88;;;8.40;99.90;;;;;;5095901;28;20108;-69
2020/12/24 05:22:24;;;;;;;10.95;2.00;;;8.40;99.90;;;;;;5095601;28;20028;-69
2020/12/24 05:24:49;;;;;;;12.82;2.13;;;8.40;99.90;;;;;;5094833;28;20055;-69
2020/12/24 05:27:19;;;;;;;9.18;2.08;;;8.40;99.90;;;;;;5095805;28;20075;-69
2020/12/24 05:29:46;;;;;;;20.40;3.90;;;8.40;99.90;;;;;;5094357;28;20500;-69
2020/12/24 05:32:12;;;;;;;9.63;1.92;;;8.40;99.90;;;;;;5095690;28;20377;-69
2020/12/24 05:34:38;;;;;;;9.10;1.98;;;8.40;99.90;;;;;;5095632;28;20032;-69
2020/12/24 05:37:19;;;;;;;17.73;2.58;;;8.50;99.90;;;;;;5095357;28;20023;-69
2020/12/24 05:39:47;;;;;;;11.20;2.03;;;8.50;99.90;;;;;;5095586;28;20103;-69
2020/12/24 05:42:14;;;;;;;14.30;2.47;;;8.50;99.90;;;;;;5093856;28;20024;-69
2020/12/24 05:44:40;;;;;;;14.63;2.30;;;8.50;99.90;;;;;;5095386;28;20020;-69
2020/12/24 05:47:06;;;;;;;12.07;3.30;;;8.50;99.90;;;;;;5095401;28;20107;-69
2020/12/24 05:49:34;;;;;;;17.38;2.67;;;8.50;99.90;;;;;;5095395;28;20068;-69
2020/12/24 05:52:02;;;;;;;13.60;3.22;;;8.50;99.90;;;;;;5095341;28;20020;-69
2020/12/24 05:54:29;;;;;;;15.32;2.70;;;8.50;99.90;;;;;;5095306;28;20441;-69
2020/12/24 05:56:56;;;;;;;13.82;2.40;;;8.50;99.90;;;;;;5094981;28;20035;-69
2020/12/24 05:59:24;;;;;;;18.48;3.78;;;8.50;99.90;;;;;;5095245;28;20047;-69
2020/12/24 06:04:48;;;;;;;12.80;2.38;;;8.50;99.90;;;;;;5091889;28;20348;-69
2020/12/24 06:10:08;;;;;;;18.40;4.30;;;8.50;99.90;;;;;;5112338;27;20347;-70
2020/12/24 06:12:34;;;;;;;11.15;2.80;;;8.40;99.90;;;;;;5111978;28;20023;-70
2020/12/24 06:15:01;;;;;;;12.95;2.60;;;8.40;99.90;;;;;;5111919;28;20099;-70
2020/12/24 06:17:28;;;;;;;14.27;3.05;;;8.40;99.90;;;;;;5111592;28;20020;-70
2020/12/24 06:19:54;;;;;;;13.60;2.80;;;8.30;99.90;;;;;;5111253;28;20098;-70
2020/12/24 06:22:22;;;;;;;12.57;3.35;;;8.30;99.90;;;;;;5111778;28;20038;-70
2020/12/24 06:24:58;;;;;;;19.20;3.63;;;8.30;99.90;;;;;;5111444;28;20031;-70
2020/12/24 06:27:46;;;;;;;17.35;4.47;;;8.20;99.90;;;;;;5111634;28;20020;-70
2020/12/24 06:30:19;;;;;;;14.00;4.15;;;8.20;99.90;;;;;;5111056;28;20438;-70
2020/12/24 06:32:47;;;;;;;;;;;8.20;99.90;;;;;;5111728;28;20020;-70
2020/12/24 06:35:40;;;;;;;13.30;3.08;;;8.20;99.90;;;;;;5111269;28;19908;-70
2020/12/24 06:38:08;;;;;;;14.40;3.08;;;8.20;99.90;;;;;;5110024;28;20042;-70
2020/12/24 06:40:37;;;;;;;14.68;3.25;;;8.20;99.90;;;;;;5111390;28;20514;-70
2020/12/24 06:43:04;;;;;;;14.73;3.03;;;8.20;99.90;;;;;;5111350;28;20028;-70
2020/12/24 06:45:33;;;;;;;15.35;3.03;;;8.20;99.90;;;;;;5109731;28;20028;-70
2020/12/24 06:48:21;;;;;;;17.60;4.80;;;8.10;99.90;;;;;;5110960;28;20031;-70
2020/12/24 06:51:02;;;;;;;14.55;3.25;;;8.00;99.90;;;;;;5111257;28;20023;-70
2020/12/24 06:53:31;;;;;;;10.18;2.75;;;8.00;99.90;;;;;;5109710;28;20051;-70
2020/12/24 06:56:19;;;;;;;4.95;2.05;;;7.80;99.90;;;;;;5110872;28;20023;-70
2020/12/24 06:58:48;;;;;;;3.75;2.10;;;6.50;99.90;;;;;;5110519;28;20028;-70
2020/12/24 07:01:20;;;;;;;4.05;2.67;;;5.90;99.90;;;;;;5111010;28;20020;-70
2020/12/24 07:03:46;;;;;;;3.38;2.75;;;5.60;99.90;;;;;;5111013;28;20031;-71
2020/12/24 07:06:12;;;;;;;3.75;2.85;;;5.30;99.90;;;;;;5110861;28;20047;-70
2020/12/24 07:08:44;;;;;;;2.95;2.40;;;5.20;99.90;;;;;;5110361;28;20468;-70
2020/12/24 07:11:10;;;;;;;2.50;1.90;;;5.20;99.90;;;;;;5110520;28;20024;-70
2020/12/24 07:16:13;;;;;;;2.38;1.70;;;5.10;99.90;;;;;;5091861;28;20674;-70
2020/12/24 07:18:40;;;;;;;1.65;1.55;;;4.90;99.90;;;;;;5091077;28;20033;-71
2020/12/24 07:21:08;;;;;;;2.15;1.95;;;4.70;99.90;;;;;;5091525;28;20028;-71
2020/12/24 07:23:36;;;;;;;2.05;1.67;;;4.50;99.90;;;;;;5091480;28;20020;-71
2020/12/24 07:26:04;;;;;;;3.42;1.73;;;4.50;99.90;;;;;;5089600;28;20043;-71
2020/12/24 07:28:31;;;;;;;2.50;1.88;;;;;;;;;;5091849;28;20025;-71
2020/12/24 07:30:59;;;;;;;2.88;2.00;;;4.40;99.90;;;;;;5091038;28;20384;-71
2020/12/24 07:33:26;;;;;;;2.47;2.15;;;4.40;99.90;;;;;;5091003;28;20067;-71
2020/12/24 07:35:52;;;;;;;2.30;2.08;;;4.30;99.90;;;;;;5090082;28;20047;-71
2020/12/24 07:38:19;;;;;;;2.97;2.60;;;4.40;99.90;;;;;;5089916;28;20066;-71
2020/12/24 07:40:45;;;;;;;2.97;2.42;;;4.20;99.90;;;;;;5091328;28;20480;-71
2020/12/24 07:43:12;;;;;;;3.47;2.38;;;4.30;99.90;;;;;;5091254;28;20058;-71
2020/12/24 07:45:38;;;;;;;3.78;2.88;;;4.20;99.90;;;;;;5089570;28;20023;-70
2020/12/24 07:48:13;;;;;;;4.93;3.70;;;4.30;99.90;;;;;;5092296;28;20025;-72
2020/12/24 07:50:39;;;;;;;3.05;2.45;;;4.20;99.90;;;;;;5090947;28;20019;-72
2020/12/24 07:53:08;;;;;;;4.40;2.97;;;4.00;99.90;;;;;;5090935;28;20376;-72
2020/12/24 07:55:33;;;;;;;4.43;3.10;;;4.10;99.90;;;;;;5090289;28;20067;-72
2020/12/24 07:58:15;;;;;;;3.40;2.85;;;4.10;99.90;;;;;;5089018;28;20052;-72
2020/12/24 08:00:44;;;;;;;3.75;2.97;;;4.10;99.90;;;;;;5090795;28;20022;-72
2020/12/24 08:03:13;;;;;;;4.45;3.15;;;4.00;99.90;;;;;;5090958;28;20021;-72
2020/12/24 08:05:39;;;;;;;4.03;2.83;;;4.10;99.90;;;;;;5090721;28;20021;-72
2020/12/24 08:08:05;;;;;;;2.80;2.47;;;4.10;99.90;;;;;;5089468;28;20150;-69
2020/12/24 08:10:36;;;;;;;3.67;2.90;;;4.10;99.90;;;;;;5090579;28;20047;-72
2020/12/24 08:13:04;;;;;;;4.78;3.17;;;4.10;99.90;;;;;;5089118;28;20105;-72
2020/12/24 08:15:40;;;;;;;4.38;2.65;;;4.10;99.90;;;;;;5088582;28;20500;-72
2020/12/24 08:18:10;;;;;;;5.05;2.45;;;4.10;99.90;;;;;;5090189;28;20016;-72
2020/12/24 08:20:59;;;;;;;5.88;2.78;;;4.10;99.90;;;;;;5090421;28;20023;-69
2020/12/24 08:23:51;;;;;;;3.72;2.28;;;4.20;99.90;;;;;;5090010;28;20021;-71
2020/12/24 08:26:17;;;;;;;5.25;2.50;;;4.10;99.90;;;;;;5083585;28;20141;-72
2020/12/24 08:28:57;;;;;;;4.45;2.78;;;4.10;99.90;;;;;;5076769;28;20025;-72
2020/12/24 08:31:25;;;;;;;3.65;2.83;;;4.20;99.90;;;;;;5074875;28;20020;-72
2020/12/24 08:33:52;;;;;;;3.50;2.70;;;4.20;99.90;;;;;;5076600;28;20405;-72
2020/12/24 08:36:21;;;;;;;3.08;2.60;;;4.20;99.90;;;;;;5074813;28;20031;-72
2020/12/24 08:38:47;;;;;;;2.90;2.17;;;4.20;99.90;;;;;;5076584;28;20411;-72
2020/12/24 08:41:22;;;;;;;3.75;2.70;;;4.10;99.90;;;;;;5076272;28;20047;-72
2020/12/24 08:43:54;;;;;;;2.85;2.50;;;4.20;99.90;;;;;;5074690;28;20491;-72
2020/12/24 08:46:22;;;;;;;2.55;2.30;;;4.20;99.90;;;;;;5076444;28;20387;-72
2020/12/24 08:48:48;;;;;;;3.13;2.60;;;4.20;99.90;;;;;;5075039;28;20016;-72
2020/12/24 08:51:16;;;;;;;3.17;2.63;;;4.20;99.90;;;;;;5074567;28;20020;-72
2020/12/24 08:53:42;;;;;;;3.92;2.70;;;4.20;99.90;;;;;;5076286;28;20481;-72
2020/12/24 08:56:14;;;;;;;3.10;2.65;;;4.30;99.90;;;;;;5076073;28;20108;-70
2020/12/24 08:58:55;;;;;;;3.30;2.58;;;4.30;99.90;;;;;;5075958;28;20086;-70
2020/12/24 09:01:21;;;;;;;2.90;2.53;;;4.10;99.90;;;;;;5074298;28;20433;-69
2020/12/24 09:03:47;;;;;;;3.33;2.65;;;4.30;99.90;;;;;;5076074;28;20063;-71
2020/12/24 09:06:15;;;;;;;5.15;3.00;;;4.30;99.90;;;;;;5075524;28;20021;-70
2020/12/24 09:08:48;;;;;;;4.00;3.25;;;4.30;99.90;;;;;;5057513;28;20042;-69
2020/12/24 09:11:31;;;;;;;4.95;3.25;;;4.20;99.90;;;;;;5075965;28;20423;-72
2020/12/24 09:13:59;;;;;;;5.15;3.75;;;4.20;99.90;;;;;;5074190;28;20024;-72
2020/12/24 09:16:25;;;;;;;4.10;3.63;;;4.20;99.90;;;;;;5075855;28;20426;-70
2020/12/24 09:19:07;;;;;;;5.07;3.38;;;4.40;99.90;;;;;;5057370;28;20111;-70
2020/12/24 09:21:34;;;;;;;4.43;3.30;;;4.50;99.90;;;;;;5075229;28;20074;-69
2020/12/24 09:24:08;;;;;;;3.83;3.00;;;4.40;99.90;;;;;;5075690;28;20021;-72
2020/12/24 09:26:55;;;;;;;7.05;4.82;;;4.60;99.90;;;;;;5075392;28;20021;-72
2020/12/24 09:29:23;;;;;;;6.22;4.07;;;4.60;99.90;;;;;;5075288;28;20016;-72
2020/12/24 09:32:03;;;;;;;5.30;3.63;;;4.50;99.90;;;;;;5074144;28;20374;-72
2020/12/24 09:34:29;;;;;;;4.88;3.78;;;4.50;99.90;;;;;;5075321;28;20056;-72
2020/12/24 09:36:56;;;;;;;6.00;4.05;;;4.60;99.90;;;;;;5074046;28;20386;-72
2020/12/24 09:39:22;;;;;;;4.47;3.65;;;4.70;99.90;;;;;;5074509;28;20021;-72
2020/12/24 09:41:49;;;;;;;6.25;4.25;;;4.80;99.90;;;;;;5075340;28;20453;-72
2020/12/24 09:44:16;;;;;;;4.78;3.75;;;4.80;99.90;;;;;;5075286;28;20036;-71
2020/12/24 09:46:41;;;;;;;5.53;4.03;;;4.80;99.90;;;;;;5075015;28;20059;-72
2020/12/24 09:49:07;;;;;;;7.43;4.40;;;4.80;99.90;;;;;;5074888;28;20501;-72
2020/12/24 09:51:35;;;;;;;4.75;4.00;;;4.80;99.90;;;;;;5075078;28;20100;-72
2020/12/24 09:54:03;;;;;;;6.70;5.10;;;5.00;99.90;;;;;;5074992;28;20028;-71
2020/12/24 09:56:29;;;;;;;10.10;4.80;;;4.90;99.90;;;;;;5073847;28;20020;-71
2020/12/24 09:58:54;;;;;;;8.32;4.88;;;4.90;99.90;;;;;;5073458;28;20112;-71
2020/12/24 10:01:20;;;;;;;6.97;4.32;;;5.00;99.90;;;;;;5074701;28;20166;-71
2020/12/24 10:03:46;;;;;;;5.68;4.53;;;5.00;99.90;;;;;;5073053;28;20424;-72
2020/12/24 10:06:12;;;;;;;6.93;4.63;;;4.90;99.90;;;;;;5073729;28;20029;-71
2020/12/24 10:08:38;;;;;;;6.55;4.78;;;5.00;99.90;;;;;;5073382;28;20056;-71
2020/12/24 10:11:04;;;;;;;6.00;4.78;;;5.00;99.90;;;;;;5074177;28;20031;-72
2020/12/24 10:13:29;;;;;;;6.85;4.95;;;5.00;99.90;;;;;;5073218;28;20032;-72
2020/12/24 10:15:55;;;;;;;6.07;4.43;;;5.10;99.90;;;;;;5073876;28;20059;-71
2020/12/24 10:18:21;;;;;;;7.28;4.70;;;5.00;99.90;;;;;;5074410;28;20032;-72
2020/12/24 10:20:47;;;;;;;7.78;5.18;;;5.00;99.90;;;;;;5073584;28;20063;-71
2020/12/24 10:23:13;;;;;;;7.22;5.05;;;5.00;99.90;;;;;;5074564;28;20097;-71
2020/12/24 10:25:39;;;;;;;6.63;5.38;;;5.10;99.90;;;;;;5073331;28;20377;-71
2020/12/24 10:28:06;;;;;;;6.47;5.00;;;5.20;99.90;;;;;;5073864;28;20050;-71
2020/12/24 10:30:32;;;;;;;7.07;4.95;;;5.40;99.90;;;;;;5055937;28;20401;-71
2020/12/24 10:32:57;;;;;;;6.53;5.00;;;5.30;99.90;;;;;;5074407;28;20024;-72
2020/12/24 10:35:23;;;;;;;7.63;5.13;;;5.30;99.90;;;;;;5074273;28;20497;-71
2020/12/24 10:37:48;;;;;;;6.45;4.95;;;5.40;99.90;;;;;;5074064;28;20458;-71
2020/12/24 10:40:14;;;;;;;6.70;5.38;;;5.40;99.90;;;;;;5074014;28;20040;-71
2020/12/24 10:42:40;;;;;;;7.60;5.05;;;5.30;99.90;;;;;;5074233;28;20043;-71
2020/12/24 10:45:06;;;;;;;6.68;5.15;;;5.40;99.90;;;;;;5073668;28;20051;-72
2020/12/24 10:47:32;;;;;;;6.70;4.97;;;5.40;99.90;;;;;;5072265;28;20094;-71
2020/12/24 10:49:58;;;;;;;8.52;4.82;;;5.30;99.90;;;;;;5073607;28;20381;-71
2020/12/24 10:52:23;;;;;;;6.97;5.38;;;5.30;99.90;;;;;;5074163;28;20031;-71
2020/12/24 10:54:49;;;;;;;6.65;4.97;;;5.40;99.90;;;;;;5074067;28;20034;-71
2020/12/24 10:57:15;;;;;;;7.60;5.93;;;5.50;99.90;;;;;;5072337;28;20021;-71
2020/12/24 10:59:41;;;;;;;8.55;5.70;;;5.50;99.90;;;;;;5074038;28;20369;-71
2020/12/24 11:02:07;;;;;;;8.30;5.70;;;5.50;99.90;;;;;;5073488;28;20096;-71
2020/12/24 11:04:32;;;;;;;5.70;4.60;;;5.60;99.90;;;;;;5073998;28;20488;-71
2020/12/24 11:06:58;;;;;;;6.43;4.47;;;5.70;99.90;;;;;;5073972;28;20466;-71
2020/12/24 11:09:23;;;;;;;5.85;4.93;;;5.70;99.90;;;;;;5074022;28;20025;-72
2020/12/24 11:11:49;;;;;;;9.38;4.57;;;5.80;99.90;;;;;;5073952;28;20116;-71
2020/12/24 11:14:14;;;;;;;7.45;4.60;;;5.80;99.90;;;;;;5073415;28;20044;-72
2020/12/24 11:16:41;;;;;;;7.03;4.32;;;5.90;99.90;;;;;;5073938;28;20024;-71
2020/12/24 11:19:06;;;;;;;6.53;5.00;;;6.00;99.90;;;;;;5073842;28;20062;-72
2020/12/24 11:21:33;;;;;;;7.78;5.40;;;5.90;99.90;;;;;;5072354;28;20021;-71
2020/12/24 11:24:05;;;;;;;12.70;8.07;;;5.80;99.90;;;;;;5073792;28;20515;-72
2020/12/24 11:26:32;;;;;;;15.10;8.73;;;5.80;99.90;;;;;;5072690;28;20017;-72
2020/12/24 11:28:57;;;;;;;16.38;9.70;;;5.90;99.90;;;;;;5073720;28;20033;-71
2020/12/24 11:31:24;;;;;;;15.50;9.35;;;5.90;99.90;;;;;;5073498;28;20025;-72
2020/12/24 11:33:50;;;;;;;16.08;10.52;;;5.90;99.90;;;;;;5071935;28;20063;-72
2020/12/24 11:36:16;;;;;;;16.00;9.80;;;5.90;99.90;;;;;;5073609;28;20461;-72
2020/12/24 11:38:41;;;;;;;12.73;7.80;;;5.90;99.90;;;;;;5073478;28;20020;-71
2020/12/24 11:41:12;;;;;;;11.55;7.57;;;5.80;99.90;;;;;;5073383;28;20027;-71
2020/12/24 11:43:37;;;;;;;9.65;6.05;;;5.90;99.90;;;;;;5073628;28;20020;-71
2020/12/24 11:46:03;;;;;;;9.10;6.00;;;5.90;99.90;;;;;;5073621;28;20024;-71
2020/12/24 11:48:29;;;;;;;8.52;5.40;;;6.00;99.90;;;;;;5073492;28;20024;-72
2020/12/24 11:50:54;;;;;;;8.18;5.55;;;5.90;99.90;;;;;;5073512;28;20143;-71
2020/12/24 11:53:20;;;;;;;7.47;5.63;;;5.90;99.90;;;;;;5072999;28;20033;-71
2020/12/24 11:55:45;;;;;;;10.05;6.18;;;6.00;99.90;;;;;;5073479;28;20033;-71
2020/12/24 11:58:11;;;;;;;7.65;5.50;;;6.10;99.90;;;;;;5073539;28;20021;-71
2020/12/24 12:00:36;;;;;;;8.25;5.20;;;6.10;99.90;;;;;;5072376;28;20024;-72
2020/12/24 12:03:02;;;;;;;7.78;5.50;;;6.10;99.90;;;;;;5077284;28;20035;-71
2020/12/24 12:05:27;;;;;;;7.68;5.38;;;6.00;99.90;;;;;;5058754;28;20393;-71
2020/12/24 12:07:53;;;;;;;7.57;5.72;;;6.00;99.90;;;;;;5058693;28;20130;-72
2020/12/24 12:10:18;;;;;;;7.68;5.07;;;6.00;99.90;;;;;;5076631;28;20025;-71
2020/12/24 12:12:44;;;;;;;6.55;4.88;;;6.10;99.90;;;;;;5076542;28;20150;-71
2020/12/24 12:15:09;;;;;;;8.75;5.18;;;6.20;99.90;;;;;;5075129;28;20041;-72
2020/12/24 12:17:35;;;;;;;7.03;5.93;;;6.10;99.90;;;;;;5075557;28;20052;-71
2020/12/24 12:20:01;;;;;;;8.82;6.30;;;6.00;99.90;;;;;;5076956;28;20028;-72
2020/12/24 12:22:26;;;;;;;9.00;6.25;;;5.90;99.90;;;;;;5075374;28;20029;-71
2020/12/24 12:24:52;;;;;;;9.88;6.95;;;5.90;99.90;;;;;;5076290;28;20024;-72
2020/12/24 12:27:17;;;;;;;11.25;7.60;;;5.80;99.90;;;;;;5076499;28;20381;-71
2020/12/24 12:29:43;;;;;;;11.38;7.80;;;5.80;99.90;;;;;;5076810;28;20373;-71
2020/12/24 12:32:08;;;;;;;12.20;7.63;;;5.90;99.90;;;;;;5076453;28;20029;-72
2020/12/24 12:34:34;;;;;;;10.90;7.50;;;5.90;99.90;;;;;;5076364;28;20060;-72
2020/12/24 12:36:59;;;;;;;14.23;8.23;;;5.90;99.90;;;;;;5076080;28;20028;-71
2020/12/24 12:39:25;;;;;;;11.98;8.07;;;5.90;99.90;;;;;;5076554;28;20031;-71
2020/12/24 12:41:51;;;;;;;11.50;7.72;;;5.90;99.90;;;;;;5075437;28;20465;-71
2020/12/24 12:44:16;;;;;;;12.35;8.32;;;6.00;99.90;;;;;;5076484;28;20074;-72
2020/12/24 12:46:42;;;;;;;12.48;8.10;;;6.00;99.90;;;;;;5076255;28;20439;-71
2020/12/24 12:49:08;;;;;;;12.82;8.35;;;6.10;99.90;;;;;;5076538;28;20099;-71
2020/12/24 12:51:34;;;;;;;11.40;7.50;;;6.10;99.90;;;;;;5075391;28;20031;-72
2020/12/24 12:54:00;;;;;;;12.25;7.18;;;6.00;99.90;;;;;;5076431;28;20112;-72
2020/12/24 12:56:25;;;;;;;9.20;6.93;;;6.00;99.90;;;;;;5076393;28;20028;-72
2020/12/24 12:58:51;;;;;;;10.13;6.75;;;6.10;99.90;;;;;;5076272;28;20518;-72
2020/12/24 13:01:18;;;;;;;14.32;6.68;;;6.10;99.90;;;;;;5076186;28;20365;-72